Aérodrome :
LOGIN :

S'inscrire | Disclaimer

   EN    FR    IT 

 










Légende :    VFR   VFR Marginal   IFR   IFR Intensif   IFR Très Intensif
Visi : 
Plafond : 
>= 8 km
>= 3000ft
5 à 8 km
1000 à 3000 ft
1500m à 5 km
500 à 1000 ft
800 à 1500m
200 à 500 ft
< 800m
< 200 ft
Symboles :   Orages  Brouillard  Fortes neiges  Fortes précipitations  Vent > 20 kt
SIGMETs :   Divers  Orages  Givrage  Turbulence  Onde Orograph.  Cendres Volcan.






- Altitude de l'aérodrome : 512 ft
- Code IATA : URO


LFOP - Rouen Vallée de Seine

DERNIER METAR :
  • 092000Z AUTO 31008KT 9999 FEW044 05/01 Q1024 NOSIG

METARs EXPIRÉS :
  • 091930Z AUTO 30006KT CAVOK 05/01 Q1023 NOSIG
  • 091900Z AUTO 31008KT 270V330 CAVOK 06/01 Q1023 NOSIG
  • 091830Z AUTO 32009KT 9999 FEW044 07/01 Q1022 NOSIG
  • 091800Z AUTO 32008KT 9999 BKN042 BKN052 BKN066 07/02 Q1021 NOSIG
  • 091730Z AUTO 31010KT 9999 BKN041 BKN050 BKN072 07/02 Q1021 NOSIG

TAF TAF LFOP
Valide du 09 à 18h jusqu'au 10 à 18h UTC


091700Z 0918/1018 32015KT 9999 SCT040
BECMG 0920/0922 VRB03KT
BECMG 1005/1008 19012KT
BECMG 1013/1016 19017G27KT BKN011 OVC030
ATIS : +33 2 35 80 80 34
Météo : +33 2 32 86 52 80



MET'MAP, la Météo Aéronautique d'un coup d'oeil ! - Copyright ORBIFLY Décembre 2007 - Disclaimer

ORBIFLY MET'MAP TEAM :

Programmation & Développement : Alexandra Zaïnal
Sur une idée originale de : Baudouin d'Aumeries
Assistance à la programmation : Marc-Olivier Méhu
Soutien technique & logistique : Manuel Goepfert

Contact : metmap@orbifly.com




SOURCES & CREDITS :

   NOAA